Time;durP1;ratioP1;P1;durP2;ratioP2;P2;SDS_P1;SDS_P2;PMS_P1;PMS_P2;Temp;Humidity;BMP_temperature;BMP_pressure;BME280_temperature;BME280_humidity;BME280_pressure;Samples;Min_cycle;Max_cycle;Signal;HPM_P1;HPM_P2
2021/04/16 00:01:54;;;;;;;1.80;1.40;;;;;;;3.60;59.04;103051.47;5116002;28;20668;-44
2021/04/16 00:04:19;;;;;;;3.47;1.33;;;;;;;3.59;58.77;103050.63;5115699;28;20421;-44
2021/04/16 00:06:45;;;;;;;2.10;1.40;;;;;;;3.58;58.45;103051.59;5116213;28;20020;-43
2021/04/16 00:09:10;;;;;;;1.77;1.40;;;;;;;3.56;58.81;103047.34;5115585;28;20051;-44
2021/04/16 00:11:35;;;;;;;3.43;1.40;;;;;;;3.66;59.73;103042.94;5116112;28;20114;-44
2021/04/16 00:14:02;;;;;;;2.10;1.50;;;;;;;3.69;58.99;103041.81;5115601;28;20102;-44
2021/04/16 00:16:29;;;;;;;2.70;1.60;;;;;;;3.65;59.56;103041.22;5115748;28;20020;-44
2021/04/16 00:18:54;;;;;;;2.88;1.40;;;;;;;3.67;58.90;103044.63;5114972;28;20475;-44
2021/04/16 00:21:20;;;;;;;3.33;1.50;;;;;;;3.68;58.96;103043.63;5116468;28;20042;-44
2021/04/16 00:23:46;;;;;;;2.30;1.70;;;;;;;3.57;59.40;103031.19;5115551;28;20028;-44
2021/04/16 00:26:12;;;;;;;2.80;1.40;;;;;;;3.66;59.43;103039.38;5116205;28;20054;-43
2021/04/16 00:28:39;;;;;;;2.70;1.60;;;;;;;3.55;59.63;103034.97;5114921;28;20120;-44
2021/04/16 00:31:16;;;;;;;2.45;1.20;;;;;;;3.53;60.18;103035.09;5115197;28;20027;-44
2021/04/16 00:33:42;;;;;;;3.65;1.50;;;;;;;3.59;60.06;103031.03;5115644;28;20019;-43
2021/04/16 00:36:08;;;;;;;3.58;1.42;;;;;;;3.61;59.72;103026.41;5115123;28;20106;-43
2021/04/16 00:38:34;;;;;;;2.17;1.50;;;;;;;3.55;59.71;103024.25;5114939;28;20386;-44
2021/04/16 00:41:04;;;;;;;2.10;1.60;;;;;;;3.53;59.43;103024.41;5115244;28;20015;-44
2021/04/16 00:43:33;;;;;;;4.57;1.45;;;;;;;3.47;60.73;103019.59;5115228;28;20051;-44
2021/04/16 00:46:17;;;;;;;2.15;1.30;;;;;;;3.56;60.13;103017.91;5115350;27;20036;-44
2021/04/16 00:48:52;;;;;;;3.85;1.48;;;;;;;3.47;59.73;103010.72;5115360;28;20027;-44
2021/04/16 00:51:28;;;;;;;2.10;1.25;;;;;;;3.43;60.27;103017.28;5114265;28;20031;-44
2021/04/16 00:53:54;;;;;;;3.22;1.50;;;;;;;3.45;60.04;103004.63;5113715;28;20363;-44
2021/04/16 00:56:20;;;;;;;1.83;1.25;;;;;;;3.45;60.01;103016.16;5115391;28;20383;-44
2021/04/16 00:58:45;;;;;;;2.55;1.50;;;;;;;3.44;61.15;103002.94;5113752;27;20042;-44
2021/04/16 01:01:11;;;;;;;2.10;1.47;;;;;;;3.42;60.19;103004.91;5114630;28;20039;-44
2021/04/16 01:03:36;;;;;;;2.30;1.50;;;;;;;3.36;60.69;103000.91;5114640;28;20027;-43
2021/04/16 01:06:05;;;;;;;2.60;1.50;;;;;;;3.31;60.83;103003.13;5114791;28;20262;-43
2021/04/16 01:08:33;;;;;;;2.00;1.42;;;;;;;3.21;61.06;103005.72;5114962;28;20035;-44
2021/04/16 01:10:59;;;;;;;3.03;1.50;;;;;;;3.17;60.77;103004.28;5114612;28;20028;-44
2021/04/16 01:13:25;;;;;;;4.50;1.35;;;;;;;3.17;60.78;103006.97;5114055;28;20042;-43
2021/04/16 01:15:56;;;;;;;;;;;;;;;3.31;60.02;103000.44;5115014;28;20031;-44
2021/04/16 01:18:25;;;;;;;2.85;1.55;;;;;;;3.11;60.62;103007.50;5114319;28;19914;-44
2021/04/16 01:20:52;;;;;;;2.65;1.50;;;;;;;3.11;61.22;102996.78;5114169;28;20031;-43
2021/04/16 01:23:36;;;;;;;3.08;1.70;;;;;;;3.05;61.61;103002.66;5114196;28;20032;-43
2021/04/16 01:26:04;;;;;;;2.78;1.25;;;;;;;3.06;61.94;103005.19;5114323;28;20059;-44
2021/04/16 01:28:30;;;;;;;3.00;1.52;;;;;;;3.07;60.82;103008.72;5114073;28;20062;-44
2021/04/16 01:30:57;;;;;;;2.13;1.43;;;;;;;3.02;61.36;103000.25;5114075;27;20439;-43
2021/04/16 01:33:24;;;;;;;2.20;1.65;;;;;;;2.99;61.19;103001.38;5114063;28;20031;-44
2021/04/16 01:35:49;;;;;;;3.35;1.70;;;;;;;2.97;62.05;102999.78;5114453;28;20090;-44
2021/04/16 01:38:15;;;;;;;2.37;1.60;;;;;;;3.02;61.03;103002.91;5113974;28;20019;-44
2021/04/16 01:40:40;;;;;;;2.07;1.50;;;;;;;2.99;61.75;103003.19;5114270;28;20100;-43
2021/04/16 01:43:17;;;;;;;2.20;1.40;;;;;;;2.94;61.81;103003.56;5113965;28;20420;-44
2021/04/16 01:45:43;;;;;;;1.52;1.10;;;;;;;2.77;60.99;103002.28;5113796;28;20020;-43
2021/04/16 01:48:08;;;;;;;2.07;1.53;;;;;;;2.73;62.07;103002.66;5113956;28;20497;-44
2021/04/16 01:50:33;;;;;;;3.80;2.00;;;;;;;2.63;62.04;103002.56;5113851;28;20020;-44
2021/04/16 01:53:00;;;;;;;2.77;1.60;;;;;;;2.66;62.34;102997.00;5114332;28;20027;-44
2021/04/16 01:55:26;;;;;;;4.15;1.83;;;;;;;2.60;62.77;103002.84;5114530;28;20036;-43
2021/04/16 01:57:51;;;;;;;2.35;1.60;;;;;;;2.54;63.05;103003.34;5113735;28;20516;-43
2021/04/16 02:00:31;;;;;;;2.23;1.53;;;;;;;2.58;63.17;102997.59;5114338;28;20035;-44
2021/04/16 02:02:56;;;;;;;3.22;1.83;;;;;;;2.46;62.69;103000.44;5114207;28;20071;-44
2021/04/16 02:05:22;;;;;;;2.77;1.90;;;;;;;2.38;63.02;103005.56;5113769;28;20429;-44
2021/04/16 02:07:47;;;;;;;3.27;1.60;;;;;;;2.40;63.68;102992.94;5114735;28;20047;-43
2021/04/16 02:10:13;;;;;;;2.73;1.83;;;;;;;2.31;62.90;103002.53;5117274;28;20391;-43
2021/04/16 02:12:38;;;;;;;2.03;1.67;;;;;;;2.27;63.65;102995.75;5118600;28;20023;-43
2021/04/16 02:15:05;;;;;;;4.33;1.60;;;;;;;2.25;63.39;103003.06;5118046;28;20478;-43
2021/04/16 02:17:30;;;;;;;2.83;1.90;;;;;;;2.21;64.20;102994.44;5117444;28;20038;-43
2021/04/16 02:19:57;;;;;;;3.40;1.90;;;;;;;2.16;64.81;103003.78;5117678;28;20468;-44
2021/04/16 02:22:26;;;;;;;2.25;1.75;;;;;;;2.19;64.87;102996.34;5117904;28;20051;-43
2021/04/16 02:24:52;;;;;;;1.90;1.50;;;;;;;2.15;65.19;102994.94;5117780;28;20031;-43
2021/04/16 02:27:25;;;;;;;2.00;1.73;;;;;;;2.19;65.02;103000.84;5118403;27;20028;-44
2021/04/16 02:29:51;;;;;;;2.22;1.70;;;;;;;2.14;65.09;102992.38;5118051;28;20051;-43
2021/04/16 02:32:16;;;;;;;2.70;1.85;;;;;;;2.13;65.14;102988.84;5117166;28;20067;-44
2021/04/16 02:34:42;;;;;;;3.08;1.50;;;;;;;2.08;64.99;102990.19;5118020;28;20076;-44
2021/04/16 02:37:12;;;;;;;1.90;1.50;;;;;;;2.11;65.48;102993.47;5117978;28;20024;-43
2021/04/16 02:39:39;;;;;;;4.63;2.13;;;;;;;2.06;64.92;103003.66;5117868;27;20073;-43
2021/04/16 02:42:05;;;;;;;2.10;1.48;;;;;;;2.12;66.28;103000.50;5117509;28;20028;-43
2021/04/16 02:44:31;;;;;;;2.40;1.70;;;;;;;2.12;65.50;102997.84;5118106;28;20058;-43
2021/04/16 02:46:57;;;;;;;3.47;1.80;;;;;;;2.10;65.13;103002.47;5117744;28;20364;-44
2021/04/16 02:49:24;;;;;;;2.25;1.60;;;;;;;2.06;65.14;103001.00;5117485;28;20437;-44
2021/04/16 02:51:49;;;;;;;;;;;;;;;2.18;64.00;103005.34;5117239;27;20035;-43
2021/04/16 02:54:15;;;;;;;2.80;1.90;;;;;;;2.04;65.74;103000.25;5117439;28;20281;-43
2021/04/16 02:56:40;;;;;;;2.50;1.65;;;;;;;1.96;65.88;102997.38;5117419;28;20023;-43
2021/04/16 02:59:07;;;;;;;5.30;1.73;;;;;;;1.98;66.05;102993.59;5117019;28;20038;-44
2021/04/16 03:01:32;;;;;;;3.03;1.98;;;;;;;1.97;66.48;102999.06;5117002;28;20020;-44
2021/04/16 03:03:57;;;;;;;3.43;1.70;;;;;;;1.98;64.74;102996.25;5116982;28;20051;-43
2021/04/16 03:06:23;;;;;;;3.20;1.87;;;;;;;1.99;66.56;102999.78;5117236;28;20053;-44
2021/04/16 03:08:57;;;;;;;3.83;2.00;;;;;;;1.92;66.09;103003.91;5117542;28;20514;-44
2021/04/16 03:11:25;;;;;;;2.30;1.80;;;;;;;1.88;65.80;103003.31;5117078;28;20451;-43
2021/04/16 03:13:51;;;;;;;2.60;1.85;;;;;;;1.89;65.98;102991.66;5116979;28;20023;-44
2021/04/16 03:16:17;;;;;;;3.13;2.08;;;;;;;1.95;66.77;102996.53;5116959;28;20020;-43
2021/04/16 03:18:43;;;;;;;2.92;1.95;;;;;;;1.90;66.61;102993.34;5116285;28;20525;-43
2021/04/16 03:21:09;;;;;;;5.40;2.13;;;;;;;1.91;66.10;102994.22;5115951;28;20031;-43
2021/04/16 03:23:34;;;;;;;2.95;1.67;;;;;;;1.83;67.14;102992.16;5116473;28;20023;-44
2021/04/16 03:26:00;;;;;;;2.70;1.67;;;;;;;1.75;66.27;102984.75;5116951;28;20054;-47
2021/04/16 03:28:25;;;;;;;3.20;2.10;;;;;;;1.76;67.45;102981.13;5116401;28;20027;-44
2021/04/16 03:30:51;;;;;;;4.27;2.17;;;;;;;1.79;66.69;102986.19;5116056;28;20379;-43
2021/04/16 03:33:17;;;;;;;3.08;1.80;;;;;;;1.71;67.85;102983.31;5116318;28;20036;-44
2021/04/16 03:35:42;;;;;;;;;;;;;;;1.84;65.12;102988.50;5116946;28;20110;-43
2021/04/16 03:38:08;;;;;;;2.70;1.70;;;;;;;1.78;67.28;102989.00;5116185;28;20006;-43
2021/04/16 03:40:34;;;;;;;2.47;1.77;;;;;;;1.72;67.46;102984.16;5114969;28;20269;-44
2021/04/16 03:42:59;;;;;;;2.70;1.83;;;;;;;1.64;65.53;102990.06;5116064;28;20020;-44
2021/04/16 03:45:25;;;;;;;2.73;1.53;;;;;;;1.67;66.88;102991.66;5116080;28;20062;-43
2021/04/16 03:47:51;;;;;;;;;;;;;;;1.72;65.49;102985.00;5116157;28;20277;-43
2021/04/16 03:50:21;;;;;;;5.55;2.15;;;;;;;1.57;67.76;102980.88;5115888;28;20352;-43
2021/04/16 03:52:47;;;;;;;2.78;1.92;;;;;;;1.54;67.48;102984.59;5115911;28;20020;-43
2021/04/16 03:55:15;;;;;;;3.92;1.90;;;;;;;1.59;68.70;102989.59;5115877;28;20035;-44
2021/04/16 03:57:40;;;;;;;4.60;2.00;;;;;;;1.55;68.41;102988.13;5116608;28;20028;-44
2021/04/16 04:00:10;;;;;;;3.03;1.70;;;;;;;1.61;68.56;102986.78;5115079;27;20043;-44
2021/04/16 04:02:35;;;;;;;4.55;2.35;;;;;;;1.59;67.71;102989.59;5116210;27;20051;-43
2021/04/16 04:05:01;;;;;;;2.10;1.60;;;;;;;1.55;66.75;102996.13;5116500;28;20031;-43
2021/04/16 04:07:27;;;;;;;3.57;2.00;;;;;;;1.54;68.61;102997.09;5115651;28;20397;-43
2021/04/16 04:09:52;;;;;;;3.97;1.90;;;;;;;1.51;68.44;102986.66;5115505;28;20020;-43
2021/04/16 04:12:17;;;;;;;6.13;2.23;;;;;;;1.57;67.92;102988.03;5115309;28;20110;-44
2021/04/16 04:14:43;;;;;;;2.63;1.97;;;;;;;1.57;68.43;102993.34;5115467;28;20103;-43
2021/04/16 04:17:09;;;;;;;2.37;1.70;;;;;;;1.48;68.64;102994.91;5115474;28;20031;-44
2021/04/16 04:19:35;;;;;;;4.72;2.35;;;;;;;1.45;67.45;102993.31;5116010;28;20031;-43
2021/04/16 04:22:01;;;;;;;;;;;;;;;1.55;66.91;102988.97;5115655;28;20111;-43
2021/04/16 04:24:27;;;;;;;6.10;2.20;;;;;;;1.43;67.89;102991.75;5115780;28;19908;-43
2021/04/16 04:26:54;;;;;;;5.70;2.00;;;;;;;1.48;69.81;102993.09;5115550;28;20131;-43
2021/04/16 04:29:24;;;;;;;5.10;2.10;;;;;;;1.32;68.50;102991.72;5115045;28;20042;-44
2021/04/16 04:31:51;;;;;;;5.53;2.33;;;;;;;1.29;69.04;102993.66;5114248;28;20437;-43
2021/04/16 04:34:23;;;;;;;3.35;2.15;;;;;;;1.26;69.61;102993.03;5116032;28;20023;-44
2021/04/16 04:36:50;;;;;;;3.10;2.17;;;;;;;1.29;68.88;102990.16;5115401;28;20047;-43
2021/04/16 04:39:17;;;;;;;4.30;2.20;;;;;;;1.23;69.24;102988.81;5114803;28;20046;-42
2021/04/16 04:41:44;;;;;;;4.40;2.30;;;;;;;1.25;69.52;102994.84;5114553;28;20058;-42
2021/04/16 04:44:09;;;;;;;;;;;;;;;1.39;67.04;102988.47;5114964;27;20063;-42
2021/04/16 04:46:36;;;;;;;3.00;2.13;;;;;;;1.22;68.40;102987.13;5115121;28;19939;-42
2021/04/16 04:49:02;;;;;;;4.00;2.33;;;;;;;1.15;68.86;102991.19;5114567;28;20028;-42
2021/04/16 04:51:27;;;;;;;;;;;;;;;1.31;67.10;102990.88;5114825;28;20066;-42
2021/04/16 04:53:53;;;;;;;4.13;2.78;;;;;;;1.21;69.15;102992.53;5114511;28;19907;-42
2021/04/16 04:56:18;;;;;;;3.70;2.67;;;;;;;1.26;70.09;102993.03;5114343;28;20456;-43
2021/04/16 04:58:43;;;;;;;6.77;2.60;;;;;;;1.20;69.90;102997.03;5114361;28;20027;-42
2021/04/16 05:01:09;;;;;;;3.03;2.40;;;;;;;1.23;69.78;102998.63;5114706;28;20117;-43
2021/04/16 05:03:34;;;;;;;5.60;2.60;;;;;;;1.20;69.21;102993.50;5114352;28;20027;-43
2021/04/16 05:06:00;;;;;;;4.87;2.63;;;;;;;1.22;70.26;102992.44;5114456;28;20254;-43
2021/04/16 05:08:25;;;;;;;3.87;3.00;;;;;;;1.32;69.89;102987.25;5114583;28;20020;-44
2021/04/16 05:10:50;;;;;;;4.63;2.77;;;;;;;1.31;69.76;102990.03;5114703;28;20106;-43
2021/04/16 05:13:16;;;;;;;3.63;2.57;;;;;;;1.27;70.31;102987.59;5114315;28;20034;-43
2021/04/16 05:15:41;;;;;;;8.53;2.70;;;;;;;1.33;70.16;102985.44;5114337;28;20467;-43
2021/04/16 05:18:06;;;;;;;6.57;2.60;;;;;;;1.36;70.68;102986.03;5114480;28;20038;-43
2021/04/16 05:20:32;;;;;;;5.83;2.40;;;;;;;1.47;71.75;102988.72;5114739;28;20482;-43
2021/04/16 05:22:57;;;;;;;3.77;2.43;;;;;;;1.48;70.85;102995.75;5113803;28;20024;-43
2021/04/16 05:25:22;;;;;;;4.43;2.80;;;;;;;1.56;70.51;102997.81;5113535;28;20099;-43
2021/04/16 05:27:48;;;;;;;4.90;2.67;;;;;;;1.61;70.62;102992.13;5114593;28;20070;-43
2021/04/16 05:30:14;;;;;;;3.43;2.50;;;;;;;1.67;69.76;102997.84;5114194;28;20039;-43
2021/04/16 05:32:40;;;;;;;8.57;3.17;;;;;;;1.70;70.71;102997.59;5113970;28;20023;-43
2021/04/16 05:35:07;;;;;;;5.23;2.17;;;;;;;1.90;70.63;102997.84;5113745;28;20032;-43
2021/04/16 05:37:32;;;;;;;4.05;2.50;;;;;;;2.03;70.87;102995.91;5113835;28;20027;-43
2021/04/16 05:39:58;;;;;;;4.90;2.63;;;;;;;2.04;69.61;102994.91;5114188;28;20035;-43
2021/04/16 05:42:23;;;;;;;7.20;2.60;;;;;;;2.19;70.25;102991.03;5114139;28;20032;-43
2021/04/16 05:44:48;;;;;;;5.60;2.70;;;;;;;2.25;70.80;102989.69;5113560;28;20024;-43
2021/04/16 05:47:14;;;;;;;6.33;3.43;;;;;;;2.33;69.83;102992.56;5113553;28;20069;-43
2021/04/16 05:49:41;;;;;;;4.67;2.50;;;;;;;2.42;68.96;102988.31;5113351;28;20023;-44
2021/04/16 05:52:07;;;;;;;5.20;2.63;;;;;;;2.57;69.33;102995.06;5113453;28;20814;-43
2021/04/16 05:54:32;;;;;;;3.30;2.40;;;;;;;2.68;68.75;102999.53;5113608;28;20020;-43
2021/04/16 05:56:58;;;;;;;4.67;2.90;;;;;;;2.68;68.92;102987.00;5113759;28;20276;-43
2021/04/16 05:59:23;;;;;;;5.13;2.77;;;;;;;2.75;69.23;102996.22;5114295;28;20447;-44
2021/04/16 06:01:48;;;;;;;6.97;2.70;;;;;;;2.80;69.22;102994.03;5113621;28;20032;-43
2021/04/16 06:04:19;;;;;;;3.80;2.13;;;;;;;2.88;68.49;102992.53;5113560;28;20361;-43
2021/04/16 06:06:45;;;;;;;6.97;3.10;;;;;;;2.87;68.16;102996.19;5113846;28;20436;-43
2021/04/16 06:09:10;;;;;;;6.70;2.70;;;;;;;2.80;68.50;102999.38;5113899;28;20058;-45
2021/04/16 06:11:36;;;;;;;7.05;2.92;;;;;;;2.88;69.36;103006.75;5113614;28;20302;-43
2021/04/16 06:14:02;;;;;;;3.50;2.73;;;;;;;2.98;69.58;103004.16;5113622;28;20038;-43
2021/04/16 06:16:27;;;;;;;10.80;3.10;;;;;;;3.00;69.79;103004.88;5113642;28;20085;-43
2021/04/16 06:18:53;;;;;;;4.87;2.70;;;;;;;3.03;69.88;103010.81;5112377;28;20066;-43
2021/04/16 06:21:18;;;;;;;4.80;3.10;;;;;;;3.18;69.33;103000.66;5113395;28;20513;-43
2021/04/16 06:23:43;;;;;;;7.30;3.63;;;;;;;3.22;68.97;103004.78;5113291;28;20051;-43
2021/04/16 06:26:09;;;;;;;4.27;2.40;;;;;;;3.33;69.26;103002.03;5113589;28;20086;-44
2021/04/16 06:28:34;;;;;;;4.40;3.20;;;;;;;3.43;69.30;103011.94;5113481;28;20123;-44
2021/04/16 06:31:00;;;;;;;6.75;3.00;;;;;;;3.48;68.20;103009.72;5113810;28;20032;-43
2021/04/16 06:33:27;;;;;;;6.43;2.70;;;;;;;3.58;68.99;103003.44;5114058;28;20023;-44
2021/04/16 06:36:01;;;;;;;5.35;3.10;;;;;;;3.71;68.70;103005.03;5113550;28;20035;-43
2021/04/16 06:38:33;;;;;;;6.28;2.70;;;;;;;3.69;68.23;103010.53;5113661;28;20049;-44
2021/04/16 06:41:00;;;;;;;6.20;3.20;;;;;;;3.52;68.01;103003.13;5113471;28;20475;-44
2021/04/16 06:43:35;;;;;;;5.32;2.72;;;;;;;3.44;69.09;103010.97;5113116;28;20531;-44
2021/04/16 06:46:01;;;;;;;5.70;3.35;;;;;;;3.35;69.60;103009.91;5113369;28;20032;-44
2021/04/16 06:48:27;;;;;;;7.22;2.85;;;;;;;3.29;68.65;103000.59;5113075;28;20032;-43
2021/04/16 06:50:58;;;;;;;7.28;3.20;;;;;;;3.26;69.79;103011.53;5113306;28;20027;-44
2021/04/16 06:53:52;;;;;;;5.47;2.80;;;;;;;3.35;69.20;103008.09;5113563;28;20122;-43
2021/04/16 06:56:22;;;;;;;8.75;3.35;;;;;;;3.39;69.63;103010.50;5115673;28;20472;-44
2021/04/16 06:58:58;;;;;;;5.82;2.95;;;;;;;3.52;69.91;103003.97;5117288;28;20106;-43
2021/04/16 07:01:34;;;;;;;6.70;3.30;;;;;;;3.58;69.71;103005.28;5116729;28;20034;-43
2021/04/16 07:04:21;;;;;;;5.97;3.10;;;;;;;3.56;69.42;102996.50;5116911;28;20051;-43
2021/04/16 07:06:50;;;;;;;6.93;3.30;;;;;;;3.60;69.72;103000.63;5117228;28;20028;-43
2021/04/16 07:09:23;;;;;;;4.65;3.17;;;;;;;3.73;69.77;103006.63;5116436;28;20283;-43
2021/04/16 07:11:54;;;;;;;6.82;4.10;;;;;;;3.87;69.98;103006.28;5115700;28;20098;-43
2021/04/16 07:14:30;;;;;;;6.45;3.47;;;;;;;3.97;69.42;103006.31;5117003;28;20019;-44
2021/04/16 07:16:56;;;;;;;7.47;3.25;;;;;;;4.11;69.43;103003.28;5116990;28;20466;-44
2021/04/16 07:19:26;;;;;;;5.13;2.97;;;;;;;4.26;69.17;103003.72;5116574;28;20028;-43
2021/04/16 07:22:02;;;;;;;5.97;3.20;;;;;;;4.54;68.93;102998.56;5116879;28;20149;-43
2021/04/16 07:24:27;;;;;;;7.53;3.30;;;;;;;4.61;67.63;103000.56;5117266;28;20130;-43
2021/04/16 07:26:57;;;;;;;6.53;2.93;;;;;;;4.90;67.26;103003.25;5117250;28;20282;-44
2021/04/16 07:29:57;;;;;;;5.80;3.10;;;;;;;5.19;66.07;103007.78;5116262;28;20114;-43
2021/04/16 07:32:25;;;;;;;6.70;3.13;;;;;;;5.39;64.88;102998.69;5053754;28;20124;-43
2021/04/16 07:34:50;;;;;;;4.22;2.85;;;;;;;5.57;64.02;103000.66;5053267;28;20117;-44
2021/04/16 07:37:39;;;;;;;5.73;3.23;;;;;;;5.70;63.47;103003.84;5053752;28;20120;-43
2021/04/16 07:40:10;;;;;;;5.35;3.00;;;;;;;5.93;62.83;103001.69;5053464;28;20276;-44
2021/04/16 07:42:47;;;;;;;4.50;3.00;;;;;;;6.05;62.71;102992.44;5053213;28;20044;-44
2021/04/16 07:45:24;;;;;;;5.93;2.88;;;;;;;6.17;61.27;103001.13;5052670;28;20048;-43
2021/04/16 07:48:12;;;;;;;4.07;2.55;;;;;;;6.12;59.70;102993.53;5053375;28;20037;-43
2021/04/16 07:50:43;;;;;;;4.50;2.53;;;;;;;5.98;59.31;103006.59;5053789;28;20397;-43
2021/04/16 07:53:36;;;;;;;4.55;2.60;;;;;;;6.05;60.53;103002.31;5052977;28;20048;-43
2021/04/16 07:56:16;;;;;;;6.70;2.40;;;;;;;6.10;60.64;103005.41;5053699;28;20029;-43
2021/04/16 07:58:47;;;;;;;4.93;2.72;;;;;;;6.22;59.25;103009.59;5052871;28;20035;-43
2021/04/16 08:01:24;;;;;;;3.83;2.70;;;;;;;6.31;59.64;103010.56;5053102;28;20110;-44
2021/04/16 08:03:54;;;;;;;6.60;2.88;;;;;;;6.47;59.51;103008.03;5052775;28;20025;-44
2021/04/16 08:06:34;;;;;;;5.40;2.78;;;;;;;6.58;58.32;102997.06;5052710;28;20032;-44
2021/04/16 08:09:00;;;;;;;5.55;2.55;;;;;;;6.60;57.98;103003.16;5112418;28;20039;-47
2021/04/16 08:11:29;;;;;;;5.07;2.60;;;;;;;6.68;56.83;102997.84;5116325;28;20023;-44
2021/04/16 08:14:01;;;;;;;4.35;2.85;;;;;;;6.80;57.81;102998.47;5115572;28;20024;-44
2021/04/16 08:16:33;;;;;;;4.32;2.60;;;;;;;6.90;56.93;102999.22;5115627;28;20457;-43
2021/04/16 08:18:58;;;;;;;5.95;2.83;;;;;;;6.95;56.38;103007.69;5115148;28;20486;-44
2021/04/16 08:21:25;;;;;;;6.07;2.80;;;;;;;7.11;56.60;103000.75;5115515;28;20034;-43
2021/04/16 08:24:00;;;;;;;5.97;2.97;;;;;;;7.20;55.26;102999.81;5115846;28;20110;-43
2021/04/16 08:26:35;;;;;;;4.53;2.90;;;;;;;7.14;55.03;103004.00;5115527;28;20047;-43
2021/04/16 08:29:12;;;;;;;5.32;2.78;;;;;;;7.32;54.98;102990.50;5115742;28;20034;-44
2021/04/16 08:31:44;;;;;;;5.43;2.40;;;;;;;7.39;54.04;102991.56;5115806;28;20028;-43
2021/04/16 08:34:16;;;;;;;3.45;2.60;;;;;;;7.39;52.31;103001.47;5115302;28;20110;-44
2021/04/16 08:36:44;;;;;;;4.45;2.33;;;;;;;7.48;52.26;102989.78;5115017;28;20039;-43
2021/04/16 08:39:16;;;;;;;4.28;2.60;;;;;;;7.60;52.51;102998.41;5115707;28;20023;-43
2021/04/16 08:41:49;;;;;;;5.45;2.47;;;;;;;7.67;52.91;103002.19;5115261;28;20024;-44
2021/04/16 08:44:14;;;;;;;3.92;2.30;;;;;;;7.77;52.11;102994.00;5115224;28;20068;-44
2021/04/16 08:46:47;;;;;;;5.70;2.50;;;;;;;7.91;52.35;102991.53;5115468;28;20019;-44
2021/04/16 08:49:18;;;;;;;4.88;2.92;;;;;;;8.09;53.46;102977.97;5114582;28;20485;-43
2021/04/16 08:51:48;;;;;;;3.13;2.28;;;;;;;7.99;49.45;102988.84;5114856;28;20034;-44
2021/04/16 08:54:19;;;;;;;3.17;2.00;;;;;;;8.07;49.72;102984.53;5115720;28;20069;-44
2021/04/16 08:56:55;;;;;;;3.80;2.13;;;;;;;8.24;49.34;102983.56;5114638;28;20032;-44
2021/04/16 08:59:22;;;;;;;4.57;1.77;;;;;;;8.31;50.12;102981.91;5114255;28;20073;-43
2021/04/16 09:02:06;;;;;;;7.18;1.80;;;;;;;8.27;48.17;102980.56;5114600;28;20030;-44
2021/04/16 09:04:31;;;;;;;2.63;1.80;;;;;;;8.43;47.56;102983.31;5114488;28;20027;-44
2021/04/16 09:06:59;;;;;;;2.40;1.83;;;;;;;8.49;49.15;102980.00;5114780;28;20053;-44
2021/04/16 09:09:45;;;;;;;4.65;2.00;;;;;;;8.60;46.15;102978.81;5114350;28;20019;-44
2021/04/16 09:12:51;;;;;;;2.67;1.95;;;;;;;8.76;47.08;102972.59;5114393;28;20028;-44
2021/04/16 09:15:19;;;;;;;5.07;2.60;;;;;;;8.74;45.31;102967.38;5113424;28;20040;-43
2021/04/16 09:17:50;;;;;;;3.40;1.85;;;;;;;8.84;44.36;102971.78;5113977;28;20024;-43
2021/04/16 09:20:16;;;;;;;4.00;1.80;;;;;;;8.97;46.03;102964.84;5113817;28;20034;-44
2021/04/16 09:22:43;;;;;;;5.00;2.22;;;;;;;9.04;43.36;102967.72;5114507;28;20027;-44
2021/04/16 09:25:37;;;;;;;2.78;1.73;;;;;;;9.09;42.69;102961.81;5114669;28;20059;-43
2021/04/16 09:28:21;;;;;;;2.75;1.70;;;;;;;9.26;42.89;102963.47;5106950;28;20142;-43
2021/04/16 09:30:54;;;;;;;3.20;1.58;;;;;;;9.19;41.03;102957.09;5114046;28;20053;-44
2021/04/16 09:33:26;;;;;;;2.42;1.58;;;;;;;9.29;41.58;102958.59;5114240;28;20475;-43
2021/04/16 09:36:05;;;;;;;2.05;1.40;;;;;;;9.51;42.28;102962.41;5113952;28;20024;-43
2021/04/16 09:38:52;;;;;;;3.20;1.60;;;;;;;9.65;41.08;102957.31;5114276;28;20474;-44
2021/04/16 09:41:22;;;;;;;4.15;1.80;;;;;;;9.60;40.41;102955.13;5114240;28;20035;-43
2021/04/16 09:43:53;;;;;;;2.50;1.25;;;;;;;9.63;41.35;102948.56;5114170;28;20031;-44
2021/04/16 09:46:31;;;;;;;2.38;1.20;;;;;;;9.86;39.12;102946.81;5114184;28;20035;-43
2021/04/16 09:49:02;;;;;;;1.27;0.95;;;;;;;9.78;36.70;102944.13;5113893;28;20471;-43
2021/04/16 09:51:35;;;;;;;3.15;1.27;;;;;;;9.94;40.10;102946.75;5114069;28;20462;-43
2021/04/16 09:54:10;;;;;;;2.20;1.10;;;;;;;10.14;39.70;102951.72;5114082;28;20105;-43
2021/04/16 09:56:37;;;;;;;2.45;1.35;;;;;;;10.13;37.99;102945.47;5114361;28;20127;-43
2021/04/16 09:59:09;;;;;;;3.10;1.10;;;;;;;10.16;37.42;102934.31;5113978;28;20031;-43
2021/04/16 10:02:12;;;;;;;1.85;1.08;;;;;;;10.24;37.93;102938.84;5114555;28;20027;-43
2021/04/16 10:04:53;;;;;;;2.75;1.65;;;;;;;10.34;38.88;102930.50;5113726;28;20027;-43
2021/04/16 10:07:22;;;;;;;2.30;1.40;;;;;;;10.54;38.72;102926.31;5114242;28;20118;-42
2021/04/16 10:09:47;;;;;;;3.30;1.70;;;;;;;10.49;37.38;102926.03;5113598;28;20035;-43
2021/04/16 10:12:30;;;;;;;2.00;1.20;;;;;;;10.44;38.65;102929.28;5113972;28;20023;-43
2021/04/16 10:14:55;;;;;;;2.00;1.38;;;;;;;10.48;37.45;102930.59;5113915;28;20028;-43
2021/04/16 10:17:24;;;;;;;3.45;1.55;;;;;;;10.48;36.94;102929.75;5113820;28;20040;-43
2021/04/16 10:20:01;;;;;;;2.90;1.52;;;;;;;10.27;37.83;102922.28;5113804;28;20027;-43
2021/04/16 10:22:32;;;;;;;2.33;1.70;;;;;;;10.45;39.33;102922.00;5113593;28;20032;-43
2021/04/16 10:26:30;;;;;;;2.08;1.48;;;;;;;10.42;39.14;102922.38;5113512;28;20203;-43
2021/04/16 12:38:33;;;;;;;;;;;;;;;14.10;33.74;102789.06;5073455;28;20457;-43
2021/04/16 12:41:00;;;;;;;1.90;1.48;;;;;;;13.86;31.73;102800.53;5072267;28;19965;-43
2021/04/16 12:43:27;;;;;;;2.58;1.30;;;;;;;13.83;32.12;102796.34;5072113;28;20036;-44
2021/04/16 12:45:55;;;;;;;2.47;1.30;;;;;;;13.95;33.08;102799.28;5071850;28;20032;-43
2021/04/16 12:48:26;;;;;;;3.58;1.10;;;;;;;13.94;34.50;102796.78;5072068;28;20045;-43
2021/04/16 12:50:52;;;;;;;3.10;1.60;;;;;;;13.87;31.70;102797.59;5072489;28;20033;-43
2021/04/16 12:53:17;;;;;;;;;;;;;;;14.17;31.37;102787.19;5071434;28;20036;-43
2021/04/16 12:55:43;;;;;;;2.60;1.27;;;;;;;14.07;29.40;102789.47;5091267;28;19907;-43
2021/04/16 12:58:16;;;;;;;1.60;1.15;;;;;;;14.38;28.75;102793.47;5114600;28;20367;-43
2021/04/16 13:00:43;;;;;;;2.08;1.00;;;;;;;14.24;28.00;102802.66;5115181;28;20085;-42
2021/04/16 13:03:13;;;;;;;2.17;1.00;;;;;;;14.23;27.70;102785.50;5114257;28;20038;-42
2021/04/16 13:05:39;;;;;;;2.80;1.10;;;;;;;14.33;28.53;102785.09;5114528;28;20061;-43
2021/04/16 13:08:05;;;;;;;2.55;1.45;;;;;;;14.33;29.13;102787.81;5114157;28;20027;-43
2021/04/16 13:10:31;;;;;;;5.03;1.15;;;;;;;14.32;29.60;102786.97;5114979;28;20063;-43
2021/04/16 13:12:57;;;;;;;1.80;1.00;;;;;;;14.32;27.45;102792.44;5114070;28;20110;-43
2021/04/16 13:15:22;;;;;;;0.88;0.80;;;;;;;14.35;26.79;102780.31;5114352;28;20115;-43
2021/04/16 13:17:55;;;;;;;2.53;1.00;;;;;;;14.14;28.23;102776.72;5114517;28;20114;-43
2021/04/16 13:20:23;;;;;;;1.77;1.05;;;;;;;13.91;26.62;102779.00;5114843;28;20106;-43
2021/04/16 13:22:49;;;;;;;2.65;1.10;;;;;;;14.05;27.51;102775.22;5114210;28;20106;-43
2021/04/16 13:25:16;;;;;;;2.72;1.08;;;;;;;13.91;26.53;102776.28;5114260;28;20028;-43
2021/04/16 13:27:42;;;;;;;2.45;1.10;;;;;;;14.13;26.95;102769.59;5114649;28;20039;-43
2021/04/16 13:30:10;;;;;;;1.63;0.90;;;;;;;14.27;27.16;102753.28;5114302;28;20040;-43
2021/04/16 13:32:45;;;;;;;3.85;1.40;;;;;;;14.41;28.03;102763.13;5113999;28;20270;-43
2021/04/16 13:35:17;;;;;;;2.88;1.00;;;;;;;14.28;28.19;102758.50;5113722;28;20023;-43
2021/04/16 13:37:42;;;;;;;2.22;0.85;;;;;;;14.33;27.92;102752.44;5113972;28;20019;-43
2021/04/16 13:40:09;;;;;;;1.85;1.10;;;;;;;14.28;27.82;102749.50;5114586;28;20062;-43
2021/04/16 13:42:34;;;;;;;2.53;0.90;;;;;;;14.23;28.09;102752.03;5113699;27;20023;-43
2021/04/16 13:45:00;;;;;;;2.35;1.10;;;;;;;14.12;26.40;102751.59;5113627;28;20035;-43
2021/04/16 13:47:27;;;;;;;7.70;1.50;;;;;;;14.23;28.13;102746.59;5113945;28;20059;-43
2021/04/16 13:49:57;;;;;;;1.67;1.17;;;;;;;14.18;27.68;102749.94;5113838;28;20080;-43
2021/04/16 13:52:23;;;;;;;3.38;1.25;;;;;;;14.06;27.49;102748.88;5113770;28;20031;-43
2021/04/16 13:54:48;;;;;;;;;;;;;;;14.17;27.34;102759.16;5114546;28;20062;-43